Time;durP1;ratioP1;P1;durP2;ratioP2;P2;SDS_P1;SDS_P2;PMS_P1;PMS_P2;Temp;Humidity;BMP_temperature;BMP_pressure;BME280_temperature;BME280_humidity;BME280_pressure;Samples;Min_cycle;Max_cycle;Signal;HPM_P1;HPM_P2
2023/03/03 00:01:26;;;;;;;;;;;;;;;3.33;92.85;100423.66;5030876;28;19975;-68
2023/03/03 00:03:52;;;;;;;;;;;;;;;3.36;93.43;100421.06;5010663;28;19917;-67
2023/03/03 00:06:18;;;;;;;;;;;;;;;3.38;93.84;100432.44;5025527;28;19947;-67
2023/03/03 00:08:43;;;;;;;;;;;;;;;3.47;93.55;100437.75;5026802;28;19921;-68
2023/03/03 00:11:09;;;;;;;;;;;;;;;3.48;93.99;100434.22;5030070;28;19917;-68
2023/03/03 00:13:53;;;;;;;;;;;;;;;3.52;94.27;100428.13;5010116;28;20036;-68
2023/03/03 00:16:30;;;;;;;;;;;;;;;3.60;94.05;100424.63;5027980;28;19975;-67
2023/03/03 00:18:56;;;;;;;;;;;;;;;3.65;93.91;100427.25;5027295;28;19929;-67
2023/03/03 00:21:24;;;;;;;;;;;;;;;3.68;93.91;100422.00;5010613;28;20018;-67
2023/03/03 00:23:50;;;;;;;;;;;;;;;3.70;93.76;100415.00;5025453;28;20016;-68
2023/03/03 00:26:25;;;;;;;;;;;;;;;3.73;93.76;100415.88;5022381;28;20007;-68
2023/03/03 00:28:51;;;;;;;;;;;;;;;3.77;93.33;100417.63;5019635;28;19924;-68
2023/03/03 00:31:19;;;;;;;;;;;;;;;3.79;93.34;100415.88;5014718;28;19971;-67
2023/03/03 00:33:49;;;;;;;;;;;;;;;3.85;92.91;100420.28;5026166;28;19917;-67
2023/03/03 00:36:15;;;;;;;;;;;;;;;3.82;92.22;100420.28;5030432;28;19995;-68
2023/03/03 00:38:41;;;;;;;;;;;;;;;3.86;92.36;100422.00;5030062;28;19949;-68
2023/03/03 00:41:26;;;;;;;;;;;;;;;3.85;91.97;100422.91;5029361;28;20347;-66
2023/03/03 00:43:52;;;;;;;;;;;;;;;3.76;92.50;100420.25;5029570;28;20389;-65
2023/03/03 00:46:18;;;;;;;;;;;;;;;3.76;93.05;100426.41;5028130;28;19999;-65
2023/03/03 00:48:44;;;;;;;;;;;;;;;3.81;92.54;100421.13;5029450;28;19917;-65
2023/03/03 00:51:22;;;;;;;;;;;;;;;3.77;92.95;100412.34;5022855;28;20289;-65
2023/03/03 00:53:47;;;;;;;;;;;;;;;3.81;92.10;100415.88;5021846;28;19964;-64
2023/03/03 00:56:12;;;;;;;;;;;;;;;3.79;91.98;100426.41;5028452;28;20055;-65
2023/03/03 00:58:38;;;;;;;;;;;;;;;3.72;92.32;100423.78;5029789;28;19917;-66
2023/03/03 01:01:03;;;;;;;;;;;;;;;3.68;91.73;100416.75;5028850;28;20541;-65
2023/03/03 01:03:28;;;;;;;;;;;;;;;3.59;92.24;100412.34;5021740;28;20668;-64
2023/03/03 01:05:54;;;;;;;;;;;;;;;3.51;92.48;100418.47;5024207;28;19963;-65
2023/03/03 01:08:21;;;;;;;;;;;;;;;3.46;92.68;100426.34;5024010;28;20039;-65
2023/03/03 01:10:54;;;;;;;;;;;;;;;3.42;92.26;100421.97;5019277;28;20026;-64
2023/03/03 01:13:22;;;;;;;;;;;;;;;3.38;92.87;100417.56;5029685;28;19974;-65
2023/03/03 01:15:47;;;;;;;;;;;;;;;3.33;93.20;100418.41;5028846;28;20591;-66
2023/03/03 01:18:13;;;;;;;;;;;;;;;3.31;93.43;100422.81;5029448;28;19917;-66
2023/03/03 01:20:39;;;;;;;;;;;;;;;3.24;93.41;100415.78;5013034;28;19967;-66
2023/03/03 01:23:04;;;;;;;;;;;;;;;3.18;93.39;100415.75;5032132;28;19928;-66
2023/03/03 01:25:30;;;;;;;;;;;;;;;3.08;93.86;100412.19;5033323;28;19920;-66
2023/03/03 01:27:55;;;;;;;;;;;;;;;3.04;93.66;100404.31;5032833;28;20002;-65
2023/03/03 01:30:21;;;;;;;;;;;;;;;2.99;94.14;100408.66;5033636;28;20007;-65
2023/03/03 01:32:46;;;;;;;;;;;;;;;2.92;94.41;100405.13;5018033;28;19917;-65
2023/03/03 01:35:11;;;;;;;;;;;;;;;2.82;94.37;100402.47;5029224;28;20848;-65
2023/03/03 01:37:37;;;;;;;;;;;;;;;2.76;94.88;100412.94;5032891;28;19917;-66
2023/03/03 01:40:03;;;;;;;;;;;;;;;2.69;94.96;100414.66;5033379;28;19916;-65
2023/03/03 01:42:29;;;;;;;;;;;;;;;2.62;95.42;100421.63;5032371;28;19952;-65
2023/03/03 01:45:13;;;;;;;;;;;;;;;2.53;94.95;100421.59;5033432;28;19998;-66
2023/03/03 01:47:41;;;;;;;;;;;;;;;2.46;94.83;100432.91;5032838;28;19999;-65
2023/03/03 01:50:11;;;;;;;;;;;;;;;2.39;95.53;100422.34;5033188;28;19928;-66
2023/03/03 01:52:38;;;;;;;;;;;;;;;2.31;96.03;100419.69;5014899;28;19921;-65
2023/03/03 01:55:08;;;;;;;;;;;;;;;2.23;95.31;100416.13;5032515;28;19976;-65
2023/03/03 01:57:36;;;;;;;;;;;;;;;2.18;95.57;100412.59;5020677;28;19928;-65
2023/03/03 02:00:01;;;;;;;;;;;;;;;2.16;96.12;100418.69;5020131;28;19921;-65
2023/03/03 02:02:27;;;;;;;;;;;;;;;2.14;95.92;100409.94;5032826;28;19970;-64
2023/03/03 02:04:52;;;;;;;;;;;;;;;2.05;96.34;100410.75;5032780;28;19928;-65
2023/03/03 02:07:19;;;;;;;;;;;;;;;2.02;97.17;100405.50;5032257;28;19929;-64
2023/03/03 02:09:47;;;;;;;;;;;;;;;1.97;97.38;100390.56;5032291;28;19917;-65
2023/03/03 02:12:15;;;;;;;;;;;;;;;1.94;97.65;100396.69;5030412;28;19927;-65
2023/03/03 02:14:40;;;;;;;;;;;;;;;1.93;97.52;100391.44;5031869;28;19917;-64
2023/03/03 02:17:05;;;;;;;;;;;;;;;1.90;97.51;100388.75;5031261;28;19925;-65
2023/03/03 02:19:31;;;;;;;;;;;;;;;1.87;97.39;100396.59;5031666;28;20000;-65
2023/03/03 02:21:56;;;;;;;;;;;;;;;1.84;97.72;100392.22;5031772;28;19924;-66
2023/03/03 02:24:26;;;;;;;;;;;;;;;1.78;97.84;100391.31;5030449;28;19932;-66
2023/03/03 02:26:51;;;;;;;;;;;;;;;1.75;97.94;100389.50;5015344;28;19933;-66
2023/03/03 02:29:17;;;;;;;;;;;;;;;1.70;97.34;100396.47;5012502;28;20789;-67
2023/03/03 02:31:42;;;;;;;;;;;;;;;1.69;98.20;100392.09;4993758;28;20038;-66
2023/03/03 02:34:10;;;;;;;;;;;;;;;1.67;98.26;100390.31;5025389;28;20281;-66
2023/03/03 02:36:36;;;;;;;;;;;;;;;1.64;98.30;100385.94;5013270;28;19948;-66
2023/03/03 02:39:20;;;;;;;;;;;;;;;1.60;98.56;100389.38;5019586;28;20364;-66
2023/03/03 02:42:03;;;;;;;;;;;;;;;1.54;98.51;100394.56;5032232;28;19917;-66
2023/03/03 02:44:30;;;;;;;;;;;;;;;1.50;98.14;100390.16;5031344;28;21336;-66
2023/03/03 02:46:56;;;;;;;;;;;;;;;1.45;98.47;100398.84;5031780;28;19917;-66
2023/03/03 02:49:22;;;;;;;;;;;;;;;1.40;99.14;100396.16;5014894;28;19917;-67
2023/03/03 02:51:48;;;;;;;;;;;;;;;1.40;99.41;100400.56;5025601;28;19932;-66
2023/03/03 02:54:14;;;;;;;;;;;;;;;1.40;99.78;100401.41;5031958;28;19917;-66
2023/03/03 02:56:39;;;;;;;;;;;;;;;1.38;99.88;100404.88;5031441;28;19993;-66
2023/03/03 02:59:05;;;;;;;;;;;;;;;1.38;98.94;100405.78;5032255;28;20372;-66
2023/03/03 03:01:35;;;;;;;;;;;;;;;1.35;99.72;100408.38;5031563;28;19917;-65
2023/03/03 03:04:01;;;;;;;;;;;;;;;1.29;98.99;100403.94;5031016;28;20375;-66
2023/03/03 03:06:26;;;;;;;;;;;;;;;1.25;100.00;100412.63;5030570;28;19963;-66
2023/03/03 03:08:52;;;;;;;;;;;;;;;1.23;100.00;100413.47;5031620;28;20404;-66
2023/03/03 03:11:17;;;;;;;;;;;;;;;1.23;99.76;100413.47;5031643;28;19921;-66
2023/03/03 03:13:43;;;;;;;;;;;;;;;1.19;99.30;100403.81;5031039;28;19924;-66
2023/03/03 03:16:09;;;;;;;;;;;;;;;1.18;99.75;100404.69;5010384;28;20406;-67
2023/03/03 03:18:34;;;;;;;;;;;;;;;1.19;100.00;100411.66;5031396;28;20131;-65
2023/03/03 03:21:07;;;;;;;;;;;;;;;1.19;100.00;100406.44;5031503;28;20027;-66
2023/03/03 03:23:33;;;;;;;;;;;;;;;1.18;100.00;100423.03;5026862;28;19937;-65
2023/03/03 03:25:58;;;;;;;;;;;;;;;1.17;100.00;100418.66;5031712;28;19913;-66
2023/03/03 03:28:23;;;;;;;;;;;;;;;1.14;100.00;100421.22;5030575;28;19921;-66
2023/03/03 03:30:49;;;;;;;;;;;;;;;1.11;100.00;100418.56;5031350;28;19988;-66
2023/03/03 03:33:15;;;;;;;;;;;;;;;1.08;100.00;100421.16;5031340;28;19924;-67
2023/03/03 03:35:44;;;;;;;;;;;;;;;1.07;100.00;100419.41;5030275;28;19921;-67
2023/03/03 03:38:09;;;;;;;;;;;;;;;1.06;100.00;100428.09;5029151;28;20647;-67
2023/03/03 03:40:35;;;;;;;;;;;;;;;1.03;100.00;100418.50;5031006;28;20000;-66
2023/03/03 03:43:00;;;;;;;;;;;;;;;1.04;100.00;100427.22;5031040;28;19917;-67
2023/03/03 03:45:25;;;;;;;;;;;;;;;1.00;100.00;100435.91;5029430;28;20003;-67
2023/03/03 03:47:50;;;;;;;;;;;;;;;0.96;100.00;100434.09;5030714;28;19925;-66
2023/03/03 03:50:16;;;;;;;;;;;;;;;0.93;100.00;100439.31;5030889;28;20377;-67
2023/03/03 03:52:42;;;;;;;;;;;;;;;0.91;100.00;100436.66;5022746;28;19921;-67
2023/03/03 03:55:08;;;;;;;;;;;;;;;0.94;100.00;100446.31;5019350;28;20015;-67
2023/03/03 03:57:33;;;;;;;;;;;;;;;0.93;100.00;100440.19;5030930;28;20011;-67
2023/03/03 03:59:58;;;;;;;;;;;;;;;0.90;100.00;100434.91;5030376;28;19924;-67
2023/03/03 04:02:23;;;;;;;;;;;;;;;0.87;100.00;100439.22;5030469;28;20407;-67
2023/03/03 04:04:49;;;;;;;;;;;;;;;0.85;100.00;100446.19;5030423;28;19975;-67
2023/03/03 04:07:14;;;;;;;;;;;;;;;0.84;100.00;100431.34;5030614;28;19956;-66
2023/03/03 04:09:40;;;;;;;;;;;;;;;0.84;100.00;100433.97;5029942;28;19979;-67
2023/03/03 04:12:05;;;;;;;;;;;;;;;0.88;100.00;100439.25;5030413;28;19921;-67
2023/03/03 04:14:30;;;;;;;;;;;;;;;0.91;100.00;100431.44;5029278;28;19960;-66
2023/03/03 04:16:56;;;;;;;;;;;;;;;0.92;100.00;100437.56;5029889;28;20408;-66
2023/03/03 04:19:21;;;;;;;;;;;;;;;0.93;100.00;100432.34;5026686;28;19948;-66
2023/03/03 04:21:46;;;;;;;;;;;;;;;0.94;100.00;100425.38;5030182;28;19917;-66
2023/03/03 04:24:12;;;;;;;;;;;;;;;0.95;100.00;100427.13;5029086;28;19920;-66
2023/03/03 04:26:37;;;;;;;;;;;;;;;0.95;100.00;100427.13;5029730;28;19921;-66
2023/03/03 04:29:02;;;;;;;;;;;;;;;0.94;100.00;100434.06;5030525;28;19917;-66
2023/03/03 04:31:27;;;;;;;;;;;;;;;0.93;100.00;100439.31;5029054;28;19927;-66
2023/03/03 04:33:53;;;;;;;;;;;;;;;0.91;100.00;100431.44;5029854;28;20035;-66
2023/03/03 04:36:19;;;;;;;;;;;;;;;0.84;100.00;100434.81;5029223;28;20011;-66
2023/03/03 04:38:44;;;;;;;;;;;;;;;0.78;100.00;100437.38;5030491;28;19921;-66
2023/03/03 04:41:09;;;;;;;;;;;;;;;0.73;100.00;100443.41;5029818;28;19917;-65
2023/03/03 04:43:35;;;;;;;;;;;;;;;0.72;100.00;100436.41;5029982;28;19921;-65
2023/03/03 04:46:00;;;;;;;;;;;;;;;0.73;100.00;100432.91;5029918;28;19914;-66
2023/03/03 04:48:25;;;;;;;;;;;;;;;0.75;100.00;100449.53;5012086;28;20001;-65
2023/03/03 04:50:50;;;;;;;;;;;;;;;0.77;100.00;100437.34;5029262;28;19995;-66
2023/03/03 04:53:16;;;;;;;;;;;;;;;0.78;100.00;100440.00;5013457;28;19922;-65
2023/03/03 04:55:41;;;;;;;;;;;;;;;0.81;100.00;100449.59;5013684;28;19987;-65
2023/03/03 04:58:09;;;;;;;;;;;;;;;0.87;100.00;100449.72;5029802;28;20399;-65
2023/03/03 05:00:34;;;;;;;;;;;;;;;0.93;100.00;100444.53;5029197;28;19913;-66
2023/03/03 05:03:00;;;;;;;;;;;;;;;1.01;100.00;100449.00;5028454;28;19917;-65
2023/03/03 05:05:25;;;;;;;;;;;;;;;1.09;100.00;100457.84;5029829;28;20349;-65
2023/03/03 05:07:50;;;;;;;;;;;;;;;1.18;100.00;100451.84;5029694;28;19924;-66
2023/03/03 05:10:16;;;;;;;;;;;;;;;1.24;100.00;100450.16;5029876;28;20360;-66
2023/03/03 05:12:41;;;;;;;;;;;;;;;1.32;100.00;100450.25;5028187;28;19963;-66
2023/03/03 05:15:06;;;;;;;;;;;;;;;1.36;100.00;100444.19;5029895;28;19917;-66
2023/03/03 05:17:31;;;;;;;;;;;;;;;1.44;100.00;100452.13;5028251;28;20353;-66
2023/03/03 05:19:57;;;;;;;;;;;;;;;1.54;100.00;100454.84;5029840;28;20696;-66
2023/03/03 05:22:22;;;;;;;;;;;;;;;1.62;100.00;100453.19;5028612;28;19917;-66
2023/03/03 05:24:48;;;;;;;;;;;;;;;1.70;100.00;100454.13;5029638;28;19917;-66
2023/03/03 05:27:14;;;;;;;;;;;;;;;1.77;100.00;100463.84;5029772;28;19963;-66
2023/03/03 05:29:39;;;;;;;;;;;;;;;1.79;100.00;100467.34;5028475;28;20349;-66
2023/03/03 05:32:04;;;;;;;;;;;;;;;1.83;100.00;100456.00;5011500;28;19917;-66
2023/03/03 05:34:29;;;;;;;;;;;;;;;1.90;100.00;100451.69;5010026;28;19913;-66
2023/03/03 05:36:55;;;;;;;;;;;;;;;1.98;100.00;100461.41;5009793;28;19927;-65
2023/03/03 05:39:20;;;;;;;;;;;;;;;2.04;100.00;100461.44;5025100;28;19940;-66
2023/03/03 05:41:45;;;;;;;;;;;;;;;2.07;100.00;100455.34;5029529;28;20324;-66
2023/03/03 05:44:10;;;;;;;;;;;;;;;2.09;100.00;100475.47;5028986;28;19924;-66
2023/03/03 05:46:36;;;;;;;;;;;;;;;2.10;100.00;100466.75;5029730;28;20274;-66
2023/03/03 05:49:01;;;;;;;;;;;;;;;2.11;100.00;100471.13;5029663;28;20415;-67
2023/03/03 05:51:26;;;;;;;;;;;;;;;2.15;100.00;100467.69;5028682;28;20015;-66
2023/03/03 05:53:52;;;;;;;;;;;;;;;2.17;100.00;100468.56;5029198;28;19975;-66
2023/03/03 05:56:17;;;;;;;;;;;;;;;2.21;100.00;100478.22;5015904;28;19922;-67
2023/03/03 05:58:42;;;;;;;;;;;;;;;2.25;100.00;100477.38;5011699;28;20415;-65
2023/03/03 06:01:07;;;;;;;;;;;;;;;2.29;100.00;100479.16;5028823;28;20005;-66
2023/03/03 06:03:33;;;;;;;;;;;;;;;2.33;100.00;100480.94;5028973;28;19920;-66
2023/03/03 06:05:58;;;;;;;;;;;;;;;2.38;100.00;100479.22;5029880;28;19920;-65
2023/03/03 06:08:23;;;;;;;;;;;;;;;2.40;100.00;100488.00;5030899;28;19967;-65
2023/03/03 06:10:48;;;;;;;;;;;;;;;2.43;100.00;100492.38;5032942;28;19913;-66
2023/03/03 06:13:14;;;;;;;;;;;;;;;2.43;100.00;100493.28;5032659;28;20749;-66
2023/03/03 06:15:39;;;;;;;;;;;;;;;2.42;100.00;100494.13;5032491;28;19936;-66
2023/03/03 06:18:04;;;;;;;;;;;;;;;2.40;100.00;100488.00;5032321;28;19924;-66
2023/03/03 06:20:30;;;;;;;;;;;;;;;2.44;100.00;100489.78;5032842;28;20365;-66
2023/03/03 06:22:55;;;;;;;;;;;;;;;2.46;100.00;100493.28;5030943;28;20003;-66
2023/03/03 06:25:21;;;;;;;;;;;;;;;2.50;100.00;100499.44;5015233;28;19964;-66
2023/03/03 06:27:46;;;;;;;;;;;;;;;2.54;100.00;100506.47;5017027;28;19925;-66
2023/03/03 06:30:12;;;;;;;;;;;;;;;2.54;100.00;100509.97;5028278;28;20403;-66
2023/03/03 06:32:37;;;;;;;;;;;;;;;2.57;100.00;100510.00;5028588;28;19921;-66
2023/03/03 06:35:03;;;;;;;;;;;;;;;2.62;100.00;100510.00;5029740;28;20304;-66
2023/03/03 06:37:28;;;;;;;;;;;;;;;2.63;100.00;100512.69;5030353;28;20269;-66
2023/03/03 06:39:53;;;;;;;;;;;;;;;2.67;100.00;100517.06;5032020;28;19921;-67
2023/03/03 06:42:19;;;;;;;;;;;;;;;2.70;100.00;100510.97;5031525;28;19914;-66
2023/03/03 06:44:45;;;;;;;;;;;;;;;2.75;100.00;100511.88;5031632;28;19921;-67
2023/03/03 06:47:10;;;;;;;;;;;;;;;2.79;100.00;100510.13;5032244;28;19917;-66
2023/03/03 06:49:35;;;;;;;;;;;;;;;2.83;100.00;100519.78;5031099;28;20341;-66
2023/03/03 06:52:08;;;;;;;;;;;;;;;2.87;100.00;100524.22;5032702;28;19923;-66
2023/03/03 06:54:34;;;;;;;;;;;;;;;2.92;100.00;100530.34;5032395;28;19917;-67
2023/03/03 06:57:04;;;;;;;;;;;;;;;2.94;100.00;100533.88;5028534;28;20665;-66
2023/03/03 06:59:29;;;;;;;;;;;;;;;2.98;100.00;100538.28;5012840;28;19913;-67
2023/03/03 07:01:54;;;;;;;;;;;;;;;3.01;100.00;100546.19;5016674;28;19921;-66
2023/03/03 07:04:27;;;;;;;;;;;;;;;2.98;100.00;100551.41;5030512;28;20381;-66
2023/03/03 07:06:53;;;;;;;;;;;;;;;3.07;100.00;100543.56;5031541;28;19917;-66
2023/03/03 07:09:23;;;;;;;;;;;;;;;3.10;100.00;100541.00;5031237;28;19944;-66
2023/03/03 07:11:49;;;;;;;;;;;;;;;3.16;100.00;100548.91;5032477;28;19921;-66
2023/03/03 07:14:17;;;;;;;;;;;;;;;3.21;99.84;100555.06;5031654;28;20579;-67
2023/03/03 07:16:42;;;;;;;;;;;;;;;3.25;100.00;100548.94;5027803;28;20048;-67
2023/03/03 07:19:16;;;;;;;;;;;;;;;3.31;99.89;100551.63;5031194;28;20008;-66
2023/03/03 07:21:41;;;;;;;;;;;;;;;3.36;99.14;100550.75;5031055;28;20378;-67
2023/03/03 07:24:09;;;;;;;;;;;;;;;3.45;99.06;100555.16;5031101;28;19967;-66
2023/03/03 07:26:35;;;;;;;;;;;;;;;3.53;99.61;100551.72;5030576;28;19984;-66
2023/03/03 07:29:17;;;;;;;;;;;;;;;3.59;99.35;100558.75;5030812;28;20007;-66
2023/03/03 07:31:46;;;;;;;;;;;;;;;3.63;98.99;100556.13;5022820;28;19945;-66
2023/03/03 07:34:44;;;;;;;;;;;;;;;3.67;98.72;100563.16;5031872;28;20372;-66
2023/03/03 07:37:15;;;;;;;;;;;;;;;3.78;98.45;100560.56;4958902;28;19921;-66
2023/03/03 07:39:43;;;;;;;;;;;;;;;3.80;98.28;100564.97;5028972;28;19917;-66
2023/03/03 07:42:26;;;;;;;;;;;;;;;3.82;98.53;100564.97;5031561;28;20463;-67
2023/03/03 07:44:53;;;;;;;;;;;;;;;3.87;98.26;100566.72;5030219;28;20405;-66
2023/03/03 07:47:21;;;;;;;;;;;;;;;3.90;98.00;100557.97;5031229;28;19921;-66
2023/03/03 07:49:50;;;;;;;;;;;;;;;4.02;98.03;100560.63;5031162;28;20518;-66
2023/03/03 07:52:26;;;;;;;;;;;;;;;4.10;97.30;100558.91;5030361;28;20376;-67
2023/03/03 07:54:52;;;;;;;;;;;;;;;4.16;97.01;100558.03;5031144;28;20016;-66
2023/03/03 07:57:21;;;;;;;;;;;;;;;4.26;97.24;100570.31;5030212;28;19932;-65
2023/03/03 07:59:47;;;;;;;;;;;;;;;4.36;96.88;100573.00;5030070;28;20376;-66
2023/03/03 08:02:27;;;;;;;;;;;;;;;4.48;96.87;100570.34;5014446;28;19924;-66
2023/03/03 08:04:53;;;;;;;;;;;;;;;4.59;96.38;100568.63;5017591;28;19966;-66
2023/03/03 08:07:20;;;;;;;;;;;;;;;4.72;96.10;100572.13;5027706;28;20530;-66
2023/03/03 08:09:51;;;;;;;;;;;;;;;4.86;95.78;100578.28;5021065;28;19926;-66
2023/03/03 08:12:35;;;;;;;;;;;;;;;4.96;94.94;100575.59;5004645;28;19917;-66
2023/03/03 08:15:12;;;;;;;;;;;;;;;5.02;94.55;100583.53;5006914;28;19917;-65
2023/03/03 08:17:38;;;;;;;;;;;;;;;5.09;94.31;100584.38;5025610;28;19921;-66
2023/03/03 08:20:23;;;;;;;;;;;;;;;5.24;94.09;100589.59;5026408;28;19967;-66
2023/03/03 08:22:48;;;;;;;;;;;;;;;5.28;92.53;100584.34;5027883;28;19925;-67
2023/03/03 08:25:13;;;;;;;;;;;;;;;5.30;91.33;100573.78;5029500;28;20037;-67
2023/03/03 08:27:38;;;;;;;;;;;;;;;5.42;90.76;100583.44;5011478;28;19928;-66
2023/03/03 08:30:04;;;;;;;;;;;;;;;5.47;89.15;100581.66;5028645;28;19914;-66
2023/03/03 08:32:29;;;;;;;;;;;;;;;5.61;89.17;100591.28;5025362;28;19971;-68
2023/03/03 08:34:54;;;;;;;;;;;;;;;5.68;89.10;100593.03;5031616;28;19943;-66
2023/03/03 08:37:20;;;;;;;;;;;;;;;5.74;88.32;100584.19;5037881;28;19921;-66
2023/03/03 08:39:45;;;;;;;;;;;;;;;5.77;87.85;100592.97;5030079;28;19921;-66
2023/03/03 08:42:10;;;;;;;;;;;;;;;5.90;86.71;100585.88;5012146;28;19924;-65
2023/03/03 08:44:36;;;;;;;;;;;;;;;6.00;85.61;100584.97;5000376;28;20140;-65
2023/03/03 08:47:01;;;;;;;;;;;;;;;6.11;84.86;100586.66;5029140;28;19927;-65
2023/03/03 08:49:26;;;;;;;;;;;;;;;6.19;84.28;100581.34;5028548;28;19921;-66
2023/03/03 08:51:51;;;;;;;;;;;;;;;6.29;84.85;100591.84;5029663;28;19917;-65
2023/03/03 08:54:17;;;;;;;;;;;;;;;6.37;83.09;100587.41;5028849;28;19929;-66
2023/03/03 08:56:42;;;;;;;;;;;;;;;6.50;82.60;100588.19;5027969;28;20645;-65
2023/03/03 08:59:07;;;;;;;;;;;;;;;6.55;80.58;100591.69;5025781;28;19921;-66
2023/03/03 09:01:33;;;;;;;;;;;;;;;6.49;78.36;100586.44;5026625;28;20010;-66
2023/03/03 09:03:58;;;;;;;;;;;;;;;6.64;76.43;100587.19;5026162;28;20410;-65
2023/03/03 09:06:24;;;;;;;;;;;;;;;6.84;75.70;100586.19;5027802;28;19997;-65
2023/03/03 09:08:49;;;;;;;;;;;;;;;7.04;74.17;100582.44;5026422;28;20420;-65
2023/03/03 09:11:20;;;;;;;;;;;;;;;7.27;72.50;100595.44;4998535;28;20012;-65
2023/03/03 09:13:52;;;;;;;;;;;;;;;7.35;70.99;100591.81;5025321;28;20483;-65
2023/03/03 09:16:17;;;;;;;;;;;;;;;7.70;70.70;100587.03;5028764;28;19921;-66
2023/03/03 09:18:42;;;;;;;;;;;;;;;7.96;69.19;100584.91;5027127;28;19928;-66
2023/03/03 09:21:21;;;;;;;;;;;;;;;8.45;67.54;100594.88;5029172;28;19913;-65
2023/03/03 09:23:49;;;;;;;;;;;;;;;9.19;65.25;100587.44;5026714;28;20379;-64
2023/03/03 09:26:29;;;;;;;;;;;;;;;9.71;63.35;100595.28;5029204;28;20004;-65
2023/03/03 09:29:14;;;;;;;;;;;;;;;10.15;59.64;100597.94;5029774;28;20301;-65
2023/03/03 09:31:50;;;;;;;;;;;;;;;10.21;56.15;100597.78;5025157;28;20281;-65
2023/03/03 09:34:34;;;;;;;;;;;;;;;9.96;55.87;100598.31;5028387;28;19921;-65
2023/03/03 09:36:59;;;;;;;;;;;;;;;10.39;57.01;100612.47;5027160;28;19921;-65
2023/03/03 09:39:26;;;;;;;;;;;;;;;10.61;53.33;100606.63;5026650;28;19971;-65
2023/03/03 09:41:51;;;;;;;;;;;;;;;10.94;54.87;100612.06;5028069;28;20292;-65
2023/03/03 09:44:19;;;;;;;;;;;;;;;10.92;53.67;100616.56;5025928;28;19924;-65
2023/03/03 09:46:59;;;;;;;;;;;;;;;10.98;53.31;100621.72;5016657;28;19963;-65
2023/03/03 09:49:25;;;;;;;;;;;;;;;11.06;53.82;100614.41;5027825;28;19951;-65
2023/03/03 09:52:14;;;;;;;;;;;;;;;10.61;53.00;100622.59;5031832;28;19960;-66
2023/03/03 09:54:40;;;;;;;;;;;;;;;10.56;54.10;100621.81;5004372;28;19913;-65
2023/03/03 09:57:16;;;;;;;;;;;;;;;10.56;55.32;100613.84;5014929;28;20397;-65
2023/03/03 09:59:59;;;;;;;;;;;;;;;10.84;54.60;100615.88;5033438;28;20360;-65
2023/03/03 10:02:42;;;;;;;;;;;;;;;11.09;54.92;100617.88;5031499;28;20268;-65
2023/03/03 10:05:26;;;;;;;;;;;;;;;12.20;52.14;100605.94;5024214;28;19975;-65
2023/03/03 10:08:01;;;;;;;;;;;;;;;13.06;49.71;100609.41;5032897;28;20355;-65
2023/03/03 10:10:37;;;;;;;;;;;;;;;13.50;47.89;100607.03;5032267;28;20285;-65
2023/03/03 10:13:18;;;;;;;;;;;;;;;13.97;46.99;100614.25;5024073;28;19917;-65
2023/03/03 10:15:58;;;;;;;;;;;;;;;14.31;45.31;100610.28;5028017;28;19928;-66
2023/03/03 10:18:38;;;;;;;;;;;;;;;14.91;45.47;100612.31;5019702;28;19967;-66
2023/03/03 10:21:03;;;;;;;;;;;;;;;15.05;42.82;100609.97;5011238;28;19921;-65
2023/03/03 10:23:47;;;;;;;;;;;;;;;15.10;43.03;100613.31;5028335;28;19919;-66
2023/03/03 10:26:25;;;;;;;;;;;;;;;15.35;44.10;100597.94;5032346;28;19967;-66
2023/03/03 10:28:53;;;;;;;;;;;;;;;15.96;42.27;100606.91;5032839;28;19940;-66
2023/03/03 10:31:27;;;;;;;;;;;;;;;16.23;41.01;100608.31;5032313;28;19921;-66
2023/03/03 10:34:05;;;;;;;;;;;;;;;16.37;40.09;100605.88;5032149;28;19913;-66
2023/03/03 10:36:50;;;;;;;;;;;;;;;16.20;40.75;100604.88;5030582;28;20011;-66
2023/03/03 10:39:34;;;;;;;;;;;;;;;16.16;42.08;100608.66;5031792;28;20047;-66
2023/03/03 10:42:21;;;;;;;;;;;;;;;16.39;41.66;100605.78;5031817;28;20567;-66
2023/03/03 10:44:49;;;;;;;;;;;;;;;16.68;41.83;100605.31;5031607;28;19917;-66
2023/03/03 10:47:34;;;;;;;;;;;;;;;17.18;41.20;100608.19;5032162;28;19918;-66
2023/03/03 10:50:15;;;;;;;;;;;;;;;16.80;38.61;100612.78;4998217;28;20392;-66
2023/03/03 10:52:45;;;;;;;;;;;;;;;16.95;40.07;100617.41;5012277;28;19979;-66
2023/03/03 10:55:20;;;;;;;;;;;;;;;17.58;37.59;100600.72;5024555;28;19928;-66
2023/03/03 10:57:51;;;;;;;;;;;;;;;17.24;38.75;100608.75;5030057;28;19925;-66
2023/03/03 11:00:33;;;;;;;;;;;;;;;17.08;37.97;100607.78;5030784;28;19917;-66
2023/03/03 11:02:58;;;;;;;;;;;;;;;16.70;40.15;100611.47;5030970;28;19917;-66
2023/03/03 11:05:29;;;;;;;;;;;;;;;17.57;38.77;100607.06;5029830;28;19924;-66
2023/03/03 11:07:56;;;;;;;;;;;;;;;18.02;39.20;100606.47;5030620;28;19928;-66
2023/03/03 11:10:40;;;;;;;;;;;;;;;18.09;36.95;100600.66;5031474;28;20407;-66
2023/03/03 11:13:20;;;;;;;;;;;;;;;17.72;36.54;100605.41;5030979;28;19952;-66
2023/03/03 11:15:51;;;;;;;;;;;;;;;18.21;36.95;100600.03;5031277;28;19917;-66
2023/03/03 11:18:36;;;;;;;;;;;;;;;18.52;36.77;100599.22;5030444;28;20004;-66
2023/03/03 11:21:04;;;;;;;;;;;;;;;18.73;36.15;100597.16;5031138;28;19920;-67
2023/03/03 11:23:32;;;;;;;;;;;;;;;18.71;36.21;100604.44;5014308;28;19948;-66
2023/03/03 11:26:06;;;;;;;;;;;;;;;19.03;36.55;100595.38;5010917;28;20467;-67
2023/03/03 11:28:41;;;;;;;;;;;;;;;18.87;35.28;100599.91;5028126;28;19935;-67
2023/03/03 11:31:19;;;;;;;;;;;;;;;18.73;35.97;100594.47;5030634;28;19917;-66
2023/03/03 11:33:45;;;;;;;;;;;;;;;18.77;37.11;100593.31;5029381;28;19956;-67
2023/03/03 11:36:29;;;;;;;;;;;;;;;18.57;35.73;100580.97;5028871;28;19972;-67
2023/03/03 11:39:06;;;;;;;;;;;;;;;18.76;34.79;100588.91;5029614;28;19982;-67
2023/03/03 11:41:45;;;;;;;;;;;;;;;18.32;36.40;100576.06;5012972;28;20388;-66
2023/03/03 11:44:19;;;;;;;;;;;;;;;18.86;37.58;100573.94;5013710;28;19924;-67
2023/03/03 11:46:45;;;;;;;;;;;;;;;18.95;35.64;100576.97;5011366;28;20013;-66
2023/03/03 11:49:36;;;;;;;;;;;;;;;18.91;35.76;100574.53;5025225;28;20359;-68
2023/03/03 11:52:13;;;;;;;;;;;;;;;18.64;35.93;100573.41;5028791;28;19921;-66
2023/03/03 11:54:50;;;;;;;;;;;;;;;18.74;34.29;100569.25;5012408;28;19952;-67
2023/03/03 11:57:16;;;;;;;;;;;;;;;18.91;35.36;100571.84;5030494;28;19931;-66
2023/03/03 11:59:47;;;;;;;;;;;;;;;18.89;35.33;100565.66;5030532;28;20411;-67
2023/03/03 12:02:12;;;;;;;;;;;;;;;19.14;34.58;100560.59;5029729;28;20019;-67
2023/03/03 12:04:46;;;;;;;;;;;;;;;19.50;34.20;100558.44;5017737;28;20003;-67
2023/03/03 12:07:29;;;;;;;;;;;;;;;19.58;32.57;100545.34;5029799;28;20357;-67
2023/03/03 12:10:01;;;;;;;;;;;;;;;19.72;32.94;100548.03;5029065;28;19921;-67
2023/03/03 12:12:30;;;;;;;;;;;;;;;19.69;34.23;100542.84;5029114;28;20000;-67
2023/03/03 12:15:14;;;;;;;;;;;;;;;19.74;32.57;100540.72;5029504;28;20055;-67
2023/03/03 12:17:47;;;;;;;;;;;;;;;19.60;33.83;100533.47;5029268;28;20002;-67
2023/03/03 12:20:21;;;;;;;;;;;;;;;19.69;33.21;100537.44;5030279;28;19928;-67
2023/03/03 12:22:52;;;;;;;;;;;;;;;19.69;33.24;100521.25;5028854;28;20384;-66
2023/03/03 12:25:37;;;;;;;;;;;;;;;19.70;32.50;100533.78;5030516;28;19921;-66
2023/03/03 12:28:20;;;;;;;;;;;;;;;20.09;32.87;100517.78;5029353;28;19921;-66
2023/03/03 12:31:04;;;;;;;;;;;;;;;20.19;33.00;100516.28;5030376;28;19917;-67
2023/03/03 12:33:45;;;;;;;;;;;;;;;19.72;32.34;100525.59;5028974;28;19929;-66
2023/03/03 12:36:29;;;;;;;;;;;;;;;19.93;33.49;100522.44;5014829;28;19987;-67
2023/03/03 12:39:06;;;;;;;;;;;;;;;19.86;33.55;100521.06;5030211;28;19917;-67
2023/03/03 12:41:36;;;;;;;;;;;;;;;19.70;31.93;100522.13;5029707;28;19928;-67
2023/03/03 12:44:04;;;;;;;;;;;;;;;19.53;32.98;100520.44;5029913;28;20361;-67
2023/03/03 12:46:32;;;;;;;;;;;;;;;19.74;34.01;100523.66;5030274;28;19917;-66
2023/03/03 12:48:58;;;;;;;;;;;;;;;19.71;32.83;100513.03;5029368;28;20006;-67
2023/03/03 12:51:32;;;;;;;;;;;;;;;20.01;32.00;100517.41;5029845;28;20046;-67